createdAt,value
2019-01-24T13:35:56.668Z,15.53
2019-01-24T19:52:51.000Z,16.37
2019-01-24T19:57:56.305Z,11.13
2019-01-24T20:03:03.379Z,13.77
2019-01-24T20:08:09.829Z,11.20
2019-01-24T20:13:14.808Z,17.53
2019-01-24T20:18:21.628Z,15.57
2019-01-24T20:23:26.878Z,16.73
2019-01-24T20:28:31.628Z,14.03
2019-01-24T20:33:36.338Z,14.10
2019-01-24T20:38:41.272Z,14.17
2019-01-24T20:43:47.575Z,12.73
2019-01-24T20:48:52.227Z,11.93
2019-01-24T20:53:56.900Z,13.03
2019-01-24T20:59:01.545Z,10.80
2019-01-24T21:04:07.644Z,9.97
2019-01-24T21:09:14.865Z,11.40
2019-01-24T21:14:19.791Z,11.60
2019-01-24T21:19:24.464Z,13.07
2019-01-24T21:24:30.688Z,14.33
2019-01-24T21:29:39.290Z,12.93
2019-01-24T21:34:44.864Z,15.63
2019-01-24T21:39:49.552Z,11.90
2019-01-24T21:44:54.548Z,15.07
2019-01-24T21:49:59.448Z,14.97
2019-01-24T21:55:05.559Z,15.27
2019-01-24T22:00:14.200Z,12.83
2019-01-24T22:05:21.039Z,14.73
2019-01-24T22:10:27.039Z,16.67
2019-01-24T22:15:31.862Z,17.17
2019-01-24T22:20:36.669Z,13.83
2019-01-24T22:25:41.432Z,15.43
2019-01-24T22:30:50.351Z,15.43
2019-01-24T22:35:56.843Z,14.47
2019-01-24T22:41:01.502Z,17.47
2019-01-24T22:46:06.235Z,16.37
2019-01-24T22:51:11.235Z,17.53
2019-01-24T22:56:19.404Z,15.10
2019-01-24T23:01:52.671Z,18.50
2019-01-24T23:06:58.999Z,20.10
2019-01-24T23:12:04.220Z,18.77
2019-01-24T23:17:09.404Z,18.00
2019-01-24T23:22:20.044Z,16.40
2019-01-24T23:27:24.677Z,18.57
2019-01-24T23:32:29.547Z,20.70
2019-01-24T23:37:35.440Z,23.43
2019-01-24T23:42:40.491Z,20.23
2019-01-24T23:47:45.148Z,19.50
2019-01-24T23:52:50.022Z,17.40
2019-01-24T23:57:56.028Z,15.30
